International Virtual Aviation Organisation

Russian Federation and Kazakhstan MCD

 
UNBB 270330Z 08003MPS 9999 SCT027 M10/M12 Q1035 R06/410360 NOSIG RMK QFE754
QNH:(hPa/inHg/mmHg)1035 / 30.56 / 776
QFE:(hPa/inHg/mmHg)1004 / 29.65 / 753
Temperature-10
Dew Point-12
Visibility> 10000
Weather
Cloud CoverSCT (2700);
Transition Height700 m./3200 ft.
Transition LevelFL40
SQUAWK